sensor_id;sensor_type;location;lat;lon;timestamp;P1;durP1;ratioP1;P2;durP2;ratioP2
76818;SDS011;65772;51.096;17.006;2023-02-13T00:00:49;18.40;;;9.20;;
76818;SDS011;65772;51.096;17.006;2023-02-13T00:03:16;18.20;;;7.90;;
76818;SDS011;65772;51.096;17.006;2023-02-13T00:05:44;18.40;;;8.50;;
76818;SDS011;65772;51.096;17.006;2023-02-13T00:08:12;18.80;;;7.90;;
76818;SDS011;65772;51.096;17.006;2023-02-13T00:10:40;13.60;;;7.60;;
76818;SDS011;65772;51.096;17.006;2023-02-13T00:13:07;17.60;;;6.80;;
76818;SDS011;65772;51.096;17.006;2023-02-13T00:15:35;14.00;;;7.00;;
76818;SDS011;65772;51.096;17.006;2023-02-13T00:18:03;13.20;;;6.10;;
76818;SDS011;65772;51.096;17.006;2023-02-13T00:20:32;15.90;;;6.10;;
76818;SDS011;65772;51.096;17.006;2023-02-13T00:22:59;15.60;;;7.00;;
76818;SDS011;65772;51.096;17.006;2023-02-13T00:25:27;13.80;;;6.50;;
76818;SDS011;65772;51.096;17.006;2023-02-13T00:27:55;12.60;;;6.20;;
76818;SDS011;65772;51.096;17.006;2023-02-13T00:30:23;12.80;;;6.40;;
76818;SDS011;65772;51.096;17.006;2023-02-13T00:32:50;13.80;;;6.60;;
76818;SDS011;65772;51.096;17.006;2023-02-13T00:35:18;14.20;;;7.10;;
76818;SDS011;65772;51.096;17.006;2023-02-13T00:37:46;12.60;;;6.50;;
76818;SDS011;65772;51.096;17.006;2023-02-13T00:40:14;16.20;;;6.80;;
76818;SDS011;65772;51.096;17.006;2023-02-13T00:42:41;16.20;;;6.80;;
76818;SDS011;65772;51.096;17.006;2023-02-13T00:45:09;15.40;;;7.20;;
76818;SDS011;65772;51.096;17.006;2023-02-13T00:47:37;15.00;;;6.40;;
76818;SDS011;65772;51.096;17.006;2023-02-13T00:50:06;13.30;;;5.90;;
76818;SDS011;65772;51.096;17.006;2023-02-13T00:52:36;12.70;;;5.80;;
76818;SDS011;65772;51.096;17.006;2023-02-13T00:55:05;14.00;;;6.60;;
76818;SDS011;65772;51.096;17.006;2023-02-13T00:57:35;14.00;;;6.70;;
76818;SDS011;65772;51.096;17.006;2023-02-13T01:00:04;13.40;;;6.30;;
76818;SDS011;65772;51.096;17.006;2023-02-13T01:02:33;12.50;;;5.60;;
76818;SDS011;65772;51.096;17.006;2023-02-13T01:05:01;13.60;;;5.90;;
76818;SDS011;65772;51.096;17.006;2023-02-13T01:07:29;13.10;;;5.80;;
76818;SDS011;65772;51.096;17.006;2023-02-13T01:09:57;10.70;;;5.00;;
76818;SDS011;65772;51.096;17.006;2023-02-13T01:12:26;14.10;;;6.10;;
76818;SDS011;65772;51.096;17.006;2023-02-13T01:14:53;14.20;;;6.80;;
76818;SDS011;65772;51.096;17.006;2023-02-13T01:17:21;15.70;;;6.70;;
76818;SDS011;65772;51.096;17.006;2023-02-13T01:19:49;11.90;;;5.80;;
76818;SDS011;65772;51.096;17.006;2023-02-13T01:22:17;13.90;;;5.90;;
76818;SDS011;65772;51.096;17.006;2023-02-13T01:24:48;15.90;;;6.10;;
76818;SDS011;65772;51.096;17.006;2023-02-13T01:27:16;12.00;;;5.80;;
76818;SDS011;65772;51.096;17.006;2023-02-13T01:29:44;13.70;;;6.40;;
76818;SDS011;65772;51.096;17.006;2023-02-13T01:32:11;12.90;;;6.00;;
76818;SDS011;65772;51.096;17.006;2023-02-13T01:34:39;12.60;;;6.20;;
76818;SDS011;65772;51.096;17.006;2023-02-13T01:37:07;15.70;;;7.00;;
76818;SDS011;65772;51.096;17.006;2023-02-13T01:39:35;14.90;;;6.50;;
76818;SDS011;65772;51.096;17.006;2023-02-13T01:42:03;14.20;;;6.10;;
76818;SDS011;65772;51.096;17.006;2023-02-13T01:44:45;12.40;;;6.20;;
76818;SDS011;65772;51.096;17.006;2023-02-13T01:47:16;13.80;;;6.00;;
76818;SDS011;65772;51.096;17.006;2023-02-13T01:49:48;19.80;;;10.90;;
76818;SDS011;65772;51.096;17.006;2023-02-13T01:52:21;18.60;;;9.40;;
76818;SDS011;65772;51.096;17.006;2023-02-13T01:54:49;16.40;;;7.40;;
76818;SDS011;65772;51.096;17.006;2023-02-13T01:57:17;12.30;;;5.70;;
76818;SDS011;65772;51.096;17.006;2023-02-13T01:59:50;12.30;;;5.80;;
76818;SDS011;65772;51.096;17.006;2023-02-13T02:02:22;12.90;;;5.60;;
76818;SDS011;65772;51.096;17.006;2023-02-13T02:04:50;13.40;;;5.30;;
76818;SDS011;65772;51.096;17.006;2023-02-13T02:07:20;14.20;;;5.40;;
76818;SDS011;65772;51.096;17.006;2023-02-13T02:09:52;11.40;;;5.40;;
76818;SDS011;65772;51.096;17.006;2023-02-13T02:12:23;9.90;;;5.00;;
76818;SDS011;65772;51.096;17.006;2023-02-13T02:14:55;11.90;;;5.40;;
76818;SDS011;65772;51.096;17.006;2023-02-13T02:17:28;13.00;;;5.80;;
76818;SDS011;65772;51.096;17.006;2023-02-13T02:19:59;11.10;;;5.10;;
76818;SDS011;65772;51.096;17.006;2023-02-13T02:22:40;12.30;;;5.00;;
76818;SDS011;65772;51.096;17.006;2023-02-13T02:25:51;12.70;;;5.70;;
76818;SDS011;65772;51.096;17.006;2023-02-13T02:28:58;10.50;;;5.00;;
76818;SDS011;65772;51.096;17.006;2023-02-13T02:31:51;12.20;;;6.10;;
76818;SDS011;65772;51.096;17.006;2023-02-13T02:34:36;13.50;;;5.70;;
76818;SDS011;65772;51.096;17.006;2023-02-13T02:37:17;11.30;;;5.40;;
76818;SDS011;65772;51.096;17.006;2023-02-13T02:39:58;14.20;;;6.10;;
76818;SDS011;65772;51.096;17.006;2023-02-13T02:42:41;12.20;;;5.70;;
76818;SDS011;65772;51.096;17.006;2023-02-13T02:45:18;11.50;;;4.90;;
76818;SDS011;65772;51.096;17.006;2023-02-13T02:47:54;11.90;;;5.20;;
76818;SDS011;65772;51.096;17.006;2023-02-13T02:50:45;11.30;;;5.40;;
76818;SDS011;65772;51.096;17.006;2023-02-13T02:53:22;12.00;;;5.50;;
76818;SDS011;65772;51.096;17.006;2023-02-13T02:56:00;11.90;;;4.90;;
76818;SDS011;65772;51.096;17.006;2023-02-13T02:58:34;9.20;;;4.70;;
76818;SDS011;65772;51.096;17.006;2023-02-13T03:01:27;12.80;;;5.30;;
76818;SDS011;65772;51.096;17.006;2023-02-13T03:04:16;11.60;;;5.30;;
76818;SDS011;65772;51.096;17.006;2023-02-13T03:07:07;12.10;;;5.20;;
76818;SDS011;65772;51.096;17.006;2023-02-13T03:09:39;12.90;;;6.10;;
76818;SDS011;65772;51.096;17.006;2023-02-13T03:12:29;14.20;;;5.70;;
76818;SDS011;65772;51.096;17.006;2023-02-13T03:15:22;12.80;;;5.10;;
76818;SDS011;65772;51.096;17.006;2023-02-13T03:17:52;10.20;;;5.20;;
76818;SDS011;65772;51.096;17.006;2023-02-13T03:20:41;12.80;;;5.70;;
76818;SDS011;65772;51.096;17.006;2023-02-13T03:23:40;10.80;;;5.10;;
76818;SDS011;65772;51.096;17.006;2023-02-13T03:26:29;14.80;;;5.40;;
76818;SDS011;65772;51.096;17.006;2023-02-13T03:29:12;12.60;;;5.40;;
76818;SDS011;65772;51.096;17.006;2023-02-13T03:32:09;12.80;;;5.60;;
76818;SDS011;65772;51.096;17.006;2023-02-13T03:34:43;12.40;;;5.80;;
76818;SDS011;65772;51.096;17.006;2023-02-13T03:37:36;10.50;;;4.80;;
76818;SDS011;65772;51.096;17.006;2023-02-13T03:40:22;13.90;;;5.60;;
76818;SDS011;65772;51.096;17.006;2023-02-13T03:43:01;11.50;;;4.70;;
76818;SDS011;65772;51.096;17.006;2023-02-13T03:45:36;12.50;;;5.20;;
76818;SDS011;65772;51.096;17.006;2023-02-13T03:48:21;12.00;;;5.30;;
76818;SDS011;65772;51.096;17.006;2023-02-13T03:51:10;11.40;;;4.80;;
76818;SDS011;65772;51.096;17.006;2023-02-13T03:53:42;13.90;;;5.60;;
76818;SDS011;65772;51.096;17.006;2023-02-13T03:56:13;9.40;;;5.50;;
76818;SDS011;65772;51.096;17.006;2023-02-13T03:59:02;10.70;;;5.60;;
76818;SDS011;65772;51.096;17.006;2023-02-13T04:01:42;12.60;;;6.50;;
76818;SDS011;65772;51.096;17.006;2023-02-13T04:04:16;13.30;;;5.70;;
76818;SDS011;65772;51.096;17.006;2023-02-13T04:06:53;13.60;;;5.80;;
76818;SDS011;65772;51.096;17.006;2023-02-13T04:09:24;11.00;;;5.40;;
76818;SDS011;65772;51.096;17.006;2023-02-13T04:11:56;12.70;;;5.70;;
76818;SDS011;65772;51.096;17.006;2023-02-13T04:14:31;11.30;;;5.50;;
76818;SDS011;65772;51.096;17.006;2023-02-13T04:17:04;12.10;;;5.90;;
76818;SDS011;65772;51.096;17.006;2023-02-13T04:19:34;11.50;;;5.70;;
76818;SDS011;65772;51.096;17.006;2023-02-13T04:22:04;12.90;;;5.60;;
76818;SDS011;65772;51.096;17.006;2023-02-13T04:24:32;12.80;;;5.50;;
76818;SDS011;65772;51.096;17.006;2023-02-13T04:26:59;12.10;;;5.20;;
76818;SDS011;65772;51.096;17.006;2023-02-13T04:29:28;13.20;;;5.30;;
76818;SDS011;65772;51.096;17.006;2023-02-13T04:31:56;10.90;;;5.90;;
76818;SDS011;65772;51.096;17.006;2023-02-13T04:34:24;11.70;;;5.00;;
76818;SDS011;65772;51.096;17.006;2023-02-13T04:36:51;13.10;;;6.20;;
76818;SDS011;65772;51.096;17.006;2023-02-13T04:39:19;11.10;;;5.20;;
76818;SDS011;65772;51.096;17.006;2023-02-13T04:41:47;13.70;;;6.30;;
76818;SDS011;65772;51.096;17.006;2023-02-13T04:44:15;14.00;;;6.60;;
76818;SDS011;65772;51.096;17.006;2023-02-13T04:46:42;12.50;;;6.50;;
76818;SDS011;65772;51.096;17.006;2023-02-13T04:49:10;12.70;;;6.00;;
76818;SDS011;65772;51.096;17.006;2023-02-13T04:51:38;19.40;;;8.20;;
76818;SDS011;65772;51.096;17.006;2023-02-13T04:54:06;17.10;;;8.30;;
76818;SDS011;65772;51.096;17.006;2023-02-13T04:56:34;15.60;;;7.70;;
76818;SDS011;65772;51.096;17.006;2023-02-13T04:59:02;15.60;;;6.50;;
76818;SDS011;65772;51.096;17.006;2023-02-13T05:01:29;19.50;;;9.70;;
76818;SDS011;65772;51.096;17.006;2023-02-13T05:03:57;14.40;;;6.90;;
76818;SDS011;65772;51.096;17.006;2023-02-13T05:06:25;13.60;;;6.30;;
76818;SDS011;65772;51.096;17.006;2023-02-13T05:08:53;13.80;;;6.30;;
76818;SDS011;65772;51.096;17.006;2023-02-13T05:11:21;9.90;;;5.70;;
76818;SDS011;65772;51.096;17.006;2023-02-13T05:13:48;10.00;;;5.60;;
76818;SDS011;65772;51.096;17.006;2023-02-13T05:16:17;11.70;;;5.80;;
76818;SDS011;65772;51.096;17.006;2023-02-13T05:18:45;13.20;;;5.90;;
76818;SDS011;65772;51.096;17.006;2023-02-13T05:21:13;13.60;;;6.20;;
76818;SDS011;65772;51.096;17.006;2023-02-13T05:23:59;13.80;;;6.30;;
76818;SDS011;65772;51.096;17.006;2023-02-13T05:26:26;11.80;;;6.90;;
76818;SDS011;65772;51.096;17.006;2023-02-13T05:28:54;13.10;;;6.90;;
76818;SDS011;65772;51.096;17.006;2023-02-13T05:31:40;11.00;;;5.80;;
76818;SDS011;65772;51.096;17.006;2023-02-13T05:34:08;12.70;;;5.40;;
76818;SDS011;65772;51.096;17.006;2023-02-13T05:36:36;9.80;;;5.50;;
76818;SDS011;65772;51.096;17.006;2023-02-13T05:39:03;12.60;;;5.20;;
76818;SDS011;65772;51.096;17.006;2023-02-13T05:41:31;10.80;;;5.70;;
76818;SDS011;65772;51.096;17.006;2023-02-13T05:43:59;10.90;;;5.40;;
76818;SDS011;65772;51.096;17.006;2023-02-13T05:46:27;10.80;;;5.60;;
76818;SDS011;65772;51.096;17.006;2023-02-13T05:48:55;11.00;;;5.30;;
76818;SDS011;65772;51.096;17.006;2023-02-13T05:51:23;13.20;;;5.20;;
76818;SDS011;65772;51.096;17.006;2023-02-13T05:53:53;9.50;;;4.70;;
76818;SDS011;65772;51.096;17.006;2023-02-13T05:56:21;11.60;;;5.70;;
76818;SDS011;65772;51.096;17.006;2023-02-13T05:58:50;8.90;;;4.80;;
76818;SDS011;65772;51.096;17.006;2023-02-13T06:01:20;11.80;;;5.70;;
76818;SDS011;65772;51.096;17.006;2023-02-13T06:03:49;10.40;;;5.00;;
76818;SDS011;65772;51.096;17.006;2023-02-13T06:06:17;12.60;;;4.80;;
76818;SDS011;65772;51.096;17.006;2023-02-13T06:08:45;12.20;;;4.90;;
76818;SDS011;65772;51.096;17.006;2023-02-13T06:11:13;10.10;;;5.00;;
76818;SDS011;65772;51.096;17.006;2023-02-13T06:13:41;8.80;;;4.30;;
76818;SDS011;65772;51.096;17.006;2023-02-13T06:16:09;8.30;;;4.70;;
76818;SDS011;65772;51.096;17.006;2023-02-13T06:18:37;10.70;;;4.90;;
76818;SDS011;65772;51.096;17.006;2023-02-13T06:21:06;9.70;;;4.60;;
76818;SDS011;65772;51.096;17.006;2023-02-13T06:23:34;9.50;;;4.40;;
76818;SDS011;65772;51.096;17.006;2023-02-13T06:26:03;10.70;;;5.30;;
76818;SDS011;65772;51.096;17.006;2023-02-13T06:28:32;14.40;;;5.20;;
76818;SDS011;65772;51.096;17.006;2023-02-13T06:31:00;11.00;;;5.40;;
76818;SDS011;65772;51.096;17.006;2023-02-13T06:33:28;11.20;;;5.10;;
76818;SDS011;65772;51.096;17.006;2023-02-13T06:35:56;8.70;;;4.70;;
76818;SDS011;65772;51.096;17.006;2023-02-13T06:38:24;10.80;;;5.00;;
76818;SDS011;65772;51.096;17.006;2023-02-13T06:40:52;10.10;;;5.30;;
76818;SDS011;65772;51.096;17.006;2023-02-13T06:43:25;11.30;;;4.60;;
76818;SDS011;65772;51.096;17.006;2023-02-13T06:45:52;8.20;;;4.50;;
76818;SDS011;65772;51.096;17.006;2023-02-13T06:48:20;9.70;;;4.80;;
76818;SDS011;65772;51.096;17.006;2023-02-13T06:50:48;9.60;;;4.40;;
76818;SDS011;65772;51.096;17.006;2023-02-13T06:53:17;9.20;;;4.80;;
76818;SDS011;65772;51.096;17.006;2023-02-13T06:55:50;9.50;;;4.60;;
76818;SDS011;65772;51.096;17.006;2023-02-13T06:58:19;7.80;;;4.30;;
76818;SDS011;65772;51.096;17.006;2023-02-13T07:00:47;8.50;;;4.60;;
76818;SDS011;65772;51.096;17.006;2023-02-13T07:03:15;10.20;;;4.70;;
76818;SDS011;65772;51.096;17.006;2023-02-13T07:05:43;11.30;;;5.00;;
76818;SDS011;65772;51.096;17.006;2023-02-13T07:08:11;12.50;;;5.10;;
76818;SDS011;65772;51.096;17.006;2023-02-13T07:10:40;10.00;;;5.10;;
76818;SDS011;65772;51.096;17.006;2023-02-13T07:13:08;11.30;;;5.40;;
76818;SDS011;65772;51.096;17.006;2023-02-13T07:15:36;10.40;;;5.70;;
76818;SDS011;65772;51.096;17.006;2023-02-13T07:18:05;11.90;;;5.80;;
76818;SDS011;65772;51.096;17.006;2023-02-13T07:20:33;13.50;;;4.60;;
76818;SDS011;65772;51.096;17.006;2023-02-13T07:23:02;9.90;;;4.30;;
76818;SDS011;65772;51.096;17.006;2023-02-13T07:25:31;8.20;;;4.50;;
76818;SDS011;65772;51.096;17.006;2023-02-13T07:28:00;9.70;;;4.70;;
76818;SDS011;65772;51.096;17.006;2023-02-13T07:30:29;9.30;;;4.70;;
76818;SDS011;65772;51.096;17.006;2023-02-13T07:32:59;10.10;;;5.00;;
76818;SDS011;65772;51.096;17.006;2023-02-13T07:35:27;8.30;;;4.30;;
76818;SDS011;65772;51.096;17.006;2023-02-13T07:37:56;8.50;;;4.40;;
76818;SDS011;65772;51.096;17.006;2023-02-13T07:40:25;11.30;;;5.40;;
76818;SDS011;65772;51.096;17.006;2023-02-13T07:42:53;10.50;;;5.00;;
76818;SDS011;65772;51.096;17.006;2023-02-13T07:45:22;11.70;;;5.20;;
76818;SDS011;65772;51.096;17.006;2023-02-13T07:47:49;11.00;;;5.60;;
76818;SDS011;65772;51.096;17.006;2023-02-13T07:50:20;10.30;;;5.20;;
76818;SDS011;65772;51.096;17.006;2023-02-13T07:52:52;11.00;;;5.60;;
76818;SDS011;65772;51.096;17.006;2023-02-13T07:55:21;12.10;;;5.20;;
76818;SDS011;65772;51.096;17.006;2023-02-13T07:57:49;10.60;;;5.10;;
76818;SDS011;65772;51.096;17.006;2023-02-13T08:00:19;12.30;;;5.70;;
76818;SDS011;65772;51.096;17.006;2023-02-13T08:02:49;11.10;;;5.30;;
76818;SDS011;65772;51.096;17.006;2023-02-13T08:05:17;12.80;;;5.20;;
76818;SDS011;65772;51.096;17.006;2023-02-13T08:07:44;11.90;;;5.20;;
76818;SDS011;65772;51.096;17.006;2023-02-13T08:10:13;12.70;;;6.10;;
76818;SDS011;65772;51.096;17.006;2023-02-13T08:13:00;10.80;;;5.90;;
76818;SDS011;65772;51.096;17.006;2023-02-13T08:15:28;15.60;;;7.30;;
76818;SDS011;65772;51.096;17.006;2023-02-13T08:17:56;13.30;;;6.70;;
76818;SDS011;65772;51.096;17.006;2023-02-13T08:20:24;15.00;;;7.90;;
76818;SDS011;65772;51.096;17.006;2023-02-13T08:22:52;15.70;;;7.40;;
76818;SDS011;65772;51.096;17.006;2023-02-13T08:25:19;21.00;;;8.20;;
76818;SDS011;65772;51.096;17.006;2023-02-13T08:27:47;18.50;;;7.90;;
76818;SDS011;65772;51.096;17.006;2023-02-13T08:30:15;14.50;;;7.10;;
76818;SDS011;65772;51.096;17.006;2023-02-13T08:32:43;16.60;;;7.70;;
76818;SDS011;65772;51.096;17.006;2023-02-13T08:35:21;21.30;;;8.50;;
76818;SDS011;65772;51.096;17.006;2023-02-13T08:37:52;17.80;;;7.10;;
76818;SDS011;65772;51.096;17.006;2023-02-13T08:40:20;18.90;;;8.20;;
76818;SDS011;65772;51.096;17.006;2023-02-13T08:42:51;17.00;;;7.10;;
76818;SDS011;65772;51.096;17.006;2023-02-13T08:45:24;22.30;;;9.50;;
76818;SDS011;65772;51.096;17.006;2023-02-13T08:47:54;21.90;;;11.30;;
76818;SDS011;65772;51.096;17.006;2023-02-13T08:50:23;23.00;;;11.20;;
76818;SDS011;65772;51.096;17.006;2023-02-13T08:52:52;20.60;;;9.60;;
76818;SDS011;65772;51.096;17.006;2023-02-13T08:55:20;25.70;;;10.00;;
76818;SDS011;65772;51.096;17.006;2023-02-13T08:57:48;24.00;;;10.00;;
76818;SDS011;65772;51.096;17.006;2023-02-13T09:00:16;17.00;;;7.00;;
76818;SDS011;65772;51.096;17.006;2023-02-13T09:02:44;20.40;;;8.20;;
76818;SDS011;65772;51.096;17.006;2023-02-13T09:05:12;19.50;;;7.90;;
76818;SDS011;65772;51.096;17.006;2023-02-13T09:07:40;21.50;;;8.30;;
76818;SDS011;65772;51.096;17.006;2023-02-13T09:10:08;21.90;;;7.60;;
76818;SDS011;65772;51.096;17.006;2023-02-13T09:12:37;21.50;;;7.90;;
76818;SDS011;65772;51.096;17.006;2023-02-13T09:15:05;20.80;;;8.40;;
76818;SDS011;65772;51.096;17.006;2023-02-13T09:17:34;20.30;;;7.60;;
76818;SDS011;65772;51.096;17.006;2023-02-13T09:20:02;17.40;;;6.80;;
76818;SDS011;65772;51.096;17.006;2023-02-13T09:22:31;14.70;;;5.90;;
76818;SDS011;65772;51.096;17.006;2023-02-13T09:24:59;10.40;;;4.00;;
76818;SDS011;65772;51.096;17.006;2023-02-13T09:27:29;8.40;;;3.30;;
76818;SDS011;65772;51.096;17.006;2023-02-13T09:29:58;5.90;;;2.40;;
76818;SDS011;65772;51.096;17.006;2023-02-13T09:32:26;5.00;;;2.80;;
76818;SDS011;65772;51.096;17.006;2023-02-13T09:34:54;5.10;;;2.20;;
76818;SDS011;65772;51.096;17.006;2023-02-13T09:37:22;5.00;;;2.20;;
76818;SDS011;65772;51.096;17.006;2023-02-13T09:39:49;6.10;;;2.40;;
76818;SDS011;65772;51.096;17.006;2023-02-13T09:42:18;4.30;;;1.70;;
76818;SDS011;65772;51.096;17.006;2023-02-13T09:44:50;5.60;;;1.60;;
76818;SDS011;65772;51.096;17.006;2023-02-13T09:47:21;5.60;;;2.50;;
76818;SDS011;65772;51.096;17.006;2023-02-13T09:49:58;4.20;;;2.30;;
76818;SDS011;65772;51.096;17.006;2023-02-13T09:52:31;4.60;;;1.90;;
76818;SDS011;65772;51.096;17.006;2023-02-13T09:55:02;3.40;;;1.70;;
76818;SDS011;65772;51.096;17.006;2023-02-13T09:57:41;4.60;;;2.10;;
76818;SDS011;65772;51.096;17.006;2023-02-13T10:00:14;5.10;;;1.60;;
76818;SDS011;65772;51.096;17.006;2023-02-13T10:03:12;5.90;;;2.10;;
76818;SDS011;65772;51.096;17.006;2023-02-13T10:05:52;4.40;;;2.00;;
76818;SDS011;65772;51.096;17.006;2023-02-13T10:08:30;4.40;;;2.00;;
76818;SDS011;65772;51.096;17.006;2023-02-13T10:11:10;5.20;;;2.00;;
76818;SDS011;65772;51.096;17.006;2023-02-13T10:13:57;4.30;;;1.80;;
76818;SDS011;65772;51.096;17.006;2023-02-13T10:16:33;4.90;;;1.90;;
76818;SDS011;65772;51.096;17.006;2023-02-13T10:19:04;4.60;;;2.30;;
76818;SDS011;65772;51.096;17.006;2023-02-13T10:21:42;4.30;;;2.00;;
76818;SDS011;65772;51.096;17.006;2023-02-13T10:24:19;5.90;;;2.00;;
76818;SDS011;65772;51.096;17.006;2023-02-13T10:26:56;5.00;;;1.80;;
76818;SDS011;65772;51.096;17.006;2023-02-13T10:29:30;6.20;;;2.20;;
76818;SDS011;65772;51.096;17.006;2023-02-13T10:32:26;4.30;;;1.90;;
76818;SDS011;65772;51.096;17.006;2023-02-13T10:35:00;4.00;;;2.10;;
76818;SDS011;65772;51.096;17.006;2023-02-13T10:37:29;4.40;;;1.70;;
76818;SDS011;65772;51.096;17.006;2023-02-13T10:39:58;3.30;;;1.60;;
76818;SDS011;65772;51.096;17.006;2023-02-13T10:42:29;5.20;;;1.50;;
76818;SDS011;65772;51.096;17.006;2023-02-13T10:45:10;4.90;;;1.90;;
76818;SDS011;65772;51.096;17.006;2023-02-13T10:48:00;4.80;;;1.80;;
76818;SDS011;65772;51.096;17.006;2023-02-13T10:50:38;5.50;;;2.00;;
76818;SDS011;65772;51.096;17.006;2023-02-13T10:53:14;4.20;;;2.00;;
76818;SDS011;65772;51.096;17.006;2023-02-13T10:56:00;4.30;;;1.80;;
76818;SDS011;65772;51.096;17.006;2023-02-13T11:01:15;5.00;;;2.30;;
76818;SDS011;65772;51.096;17.006;2023-02-13T11:03:48;5.50;;;2.50;;
76818;SDS011;65772;51.096;17.006;2023-02-13T11:06:30;4.20;;;2.00;;
76818;SDS011;65772;51.096;17.006;2023-02-13T11:09:01;11.90;;;2.60;;
76818;SDS011;65772;51.096;17.006;2023-02-13T11:11:32;4.50;;;2.00;;
76818;SDS011;65772;51.096;17.006;2023-02-13T11:14:08;6.80;;;3.00;;
76818;SDS011;65772;51.096;17.006;2023-02-13T11:16:53;6.10;;;2.60;;
76818;SDS011;65772;51.096;17.006;2023-02-13T11:19:29;4.50;;;2.10;;
76818;SDS011;65772;51.096;17.006;2023-02-13T11:22:01;5.00;;;2.30;;
76818;SDS011;65772;51.096;17.006;2023-02-13T11:24:31;4.90;;;2.00;;
76818;SDS011;65772;51.096;17.006;2023-02-13T11:27:00;4.20;;;2.00;;
76818;SDS011;65772;51.096;17.006;2023-02-13T11:29:35;5.60;;;2.90;;
76818;SDS011;65772;51.096;17.006;2023-02-13T11:32:08;4.20;;;2.00;;
76818;SDS011;65772;51.096;17.006;2023-02-13T11:34:46;5.20;;;2.60;;
76818;SDS011;65772;51.096;17.006;2023-02-13T11:37:18;5.90;;;2.20;;
76818;SDS011;65772;51.096;17.006;2023-02-13T11:39:49;4.10;;;2.50;;
76818;SDS011;65772;51.096;17.006;2023-02-13T11:42:19;6.70;;;2.90;;
76818;SDS011;65772;51.096;17.006;2023-02-13T11:44:51;7.20;;;2.40;;
76818;SDS011;65772;51.096;17.006;2023-02-13T11:52:53;5.50;;;2.30;;
76818;SDS011;65772;51.096;17.006;2023-02-13T11:55:28;6.40;;;2.50;;
76818;SDS011;65772;51.096;17.006;2023-02-13T11:57:58;5.00;;;2.60;;
76818;SDS011;65772;51.096;17.006;2023-02-13T12:00:30;5.90;;;2.40;;
76818;SDS011;65772;51.096;17.006;2023-02-13T12:06:02;4.10;;;2.60;;
76818;SDS011;65772;51.096;17.006;2023-02-13T12:08:33;4.70;;;2.20;;
76818;SDS011;65772;51.096;17.006;2023-02-13T12:11:03;3.40;;;1.80;;
76818;SDS011;65772;51.096;17.006;2023-02-13T12:13:47;4.10;;;2.20;;
76818;SDS011;65772;51.096;17.006;2023-02-13T12:16:19;4.00;;;2.50;;
76818;SDS011;65772;51.096;17.006;2023-02-13T12:19:02;4.60;;;2.60;;
76818;SDS011;65772;51.096;17.006;2023-02-13T12:21:38;4.80;;;2.70;;
76818;SDS011;65772;51.096;17.006;2023-02-13T12:24:16;8.50;;;3.20;;
76818;SDS011;65772;51.096;17.006;2023-02-13T12:27:00;5.60;;;2.60;;
76818;SDS011;65772;51.096;17.006;2023-02-13T12:29:48;5.80;;;2.30;;
76818;SDS011;65772;51.096;17.006;2023-02-13T12:32:27;4.30;;;2.30;;
76818;SDS011;65772;51.096;17.006;2023-02-13T12:38:02;5.60;;;2.70;;
76818;SDS011;65772;51.096;17.006;2023-02-13T12:43:41;5.70;;;2.80;;
76818;SDS011;65772;51.096;17.006;2023-02-13T12:46:29;6.00;;;3.10;;
76818;SDS011;65772;51.096;17.006;2023-02-13T12:49:08;4.80;;;2.90;;
76818;SDS011;65772;51.096;17.006;2023-02-13T12:51:49;5.20;;;2.60;;
76818;SDS011;65772;51.096;17.006;2023-02-13T12:54:41;4.60;;;2.60;;
76818;SDS011;65772;51.096;17.006;2023-02-13T12:57:26;6.70;;;3.30;;
76818;SDS011;65772;51.096;17.006;2023-02-13T13:00:19;5.00;;;2.60;;
76818;SDS011;65772;51.096;17.006;2023-02-13T13:03:03;5.20;;;2.20;;
76818;SDS011;65772;51.096;17.006;2023-02-13T13:08:55;5.60;;;2.70;;
76818;SDS011;65772;51.096;17.006;2023-02-13T13:11:42;5.20;;;2.40;;
76818;SDS011;65772;51.096;17.006;2023-02-13T13:14:23;4.30;;;1.60;;
76818;SDS011;65772;51.096;17.006;2023-02-13T13:16:58;6.20;;;1.80;;
76818;SDS011;65772;51.096;17.006;2023-02-13T13:19:35;4.10;;;1.60;;
76818;SDS011;65772;51.096;17.006;2023-02-13T13:22:11;3.50;;;1.80;;
76818;SDS011;65772;51.096;17.006;2023-02-13T13:24:47;2.60;;;1.60;;
76818;SDS011;65772;51.096;17.006;2023-02-13T13:27:26;3.50;;;1.70;;
76818;SDS011;65772;51.096;17.006;2023-02-13T13:29:58;2.80;;;1.50;;
76818;SDS011;65772;51.096;17.006;2023-02-13T13:32:30;3.70;;;1.70;;
76818;SDS011;65772;51.096;17.006;2023-02-13T13:35:00;4.40;;;1.60;;
76818;SDS011;65772;51.096;17.006;2023-02-13T13:37:29;3.50;;;1.70;;
76818;SDS011;65772;51.096;17.006;2023-02-13T13:42:37;4.80;;;2.00;;
76818;SDS011;65772;51.096;17.006;2023-02-13T13:45:16;4.00;;;1.60;;
76818;SDS011;65772;51.096;17.006;2023-02-13T13:47:55;5.30;;;2.10;;
76818;SDS011;65772;51.096;17.006;2023-02-13T13:50:38;4.10;;;2.00;;
76818;SDS011;65772;51.096;17.006;2023-02-13T13:53:10;3.80;;;2.30;;
76818;SDS011;65772;51.096;17.006;2023-02-13T13:58:31;3.50;;;1.80;;
76818;SDS011;65772;51.096;17.006;2023-02-13T14:03:50;3.70;;;2.10;;
76818;SDS011;65772;51.096;17.006;2023-02-13T14:06:20;4.90;;;2.30;;
76818;SDS011;65772;51.096;17.006;2023-02-13T14:08:59;3.70;;;1.80;;
76818;SDS011;65772;51.096;17.006;2023-02-13T14:11:33;5.40;;;2.40;;
76818;SDS011;65772;51.096;17.006;2023-02-13T14:20:27;5.70;;;2.30;;
76818;SDS011;65772;51.096;17.006;2023-02-13T14:28:54;5.30;;;2.60;;
76818;SDS011;65772;51.096;17.006;2023-02-13T14:31:25;6.50;;;3.70;;
76818;SDS011;65772;51.096;17.006;2023-02-13T14:33:57;8.20;;;2.70;;
76818;SDS011;65772;51.096;17.006;2023-02-13T14:36:28;5.50;;;2.60;;
76818;SDS011;65772;51.096;17.006;2023-02-13T14:38:59;5.40;;;2.30;;
76818;SDS011;65772;51.096;17.006;2023-02-13T14:41:42;4.80;;;2.80;;
76818;SDS011;65772;51.096;17.006;2023-02-13T14:44:23;6.10;;;3.20;;
76818;SDS011;65772;51.096;17.006;2023-02-13T14:46:57;5.90;;;2.70;;
76818;SDS011;65772;51.096;17.006;2023-02-13T14:49:27;5.10;;;2.90;;
76818;SDS011;65772;51.096;17.006;2023-02-13T14:51:59;7.70;;;3.80;;
76818;SDS011;65772;51.096;17.006;2023-02-13T14:54:31;8.00;;;4.30;;
76818;SDS011;65772;51.096;17.006;2023-02-13T14:57:06;5.60;;;2.70;;
76818;SDS011;65772;51.096;17.006;2023-02-13T14:59:42;7.70;;;3.10;;
76818;SDS011;65772;51.096;17.006;2023-02-13T15:02:16;6.70;;;2.70;;
76818;SDS011;65772;51.096;17.006;2023-02-13T15:04:48;5.50;;;3.10;;
76818;SDS011;65772;51.096;17.006;2023-02-13T15:07:21;5.70;;;3.50;;
76818;SDS011;65772;51.096;17.006;2023-02-13T15:09:53;10.30;;;3.80;;
76818;SDS011;65772;51.096;17.006;2023-02-13T15:12:26;8.00;;;3.70;;
76818;SDS011;65772;51.096;17.006;2023-02-13T15:14:56;8.60;;;3.80;;
76818;SDS011;65772;51.096;17.006;2023-02-13T15:17:26;6.40;;;3.40;;
76818;SDS011;65772;51.096;17.006;2023-02-13T15:20:00;6.30;;;3.20;;
76818;SDS011;65772;51.096;17.006;2023-02-13T15:22:33;7.20;;;3.80;;
76818;SDS011;65772;51.096;17.006;2023-02-13T15:25:04;7.70;;;3.70;;
76818;SDS011;65772;51.096;17.006;2023-02-13T15:27:35;7.20;;;4.10;;
76818;SDS011;65772;51.096;17.006;2023-02-13T15:30:17;8.20;;;4.00;;
76818;SDS011;65772;51.096;17.006;2023-02-13T15:32:52;7.80;;;4.10;;
76818;SDS011;65772;51.096;17.006;2023-02-13T15:35:22;6.00;;;3.30;;
76818;SDS011;65772;51.096;17.006;2023-02-13T15:37:51;7.20;;;3.60;;
76818;SDS011;65772;51.096;17.006;2023-02-13T15:40:22;6.30;;;3.70;;